createdAt,value
2022-10-16T00:01:31.609Z,79.50
2022-10-16T00:04:01.878Z,79.40
2022-10-16T00:06:31.706Z,79.40
2022-10-16T00:08:59.905Z,79.40
2022-10-16T00:11:30.235Z,79.30
2022-10-16T00:14:00.092Z,79.40
2022-10-16T00:16:29.030Z,79.30
2022-10-16T00:18:57.125Z,79.30
2022-10-16T00:21:27.745Z,79.40
2022-10-16T00:23:57.567Z,79.30
2022-10-16T00:26:25.886Z,79.30
2022-10-16T00:28:53.842Z,79.30
2022-10-16T00:31:24.537Z,79.30
2022-10-16T00:33:52.787Z,79.30
2022-10-16T00:36:22.618Z,79.30
2022-10-16T00:38:55.409Z,79.30
2022-10-16T00:41:24.670Z,79.30
2022-10-16T00:43:54.876Z,79.30
2022-10-16T00:46:25.822Z,79.20
2022-10-16T00:48:57.628Z,79.40
2022-10-16T00:51:29.904Z,79.40
2022-10-16T00:53:59.324Z,79.20
2022-10-16T00:56:27.069Z,80.00
2022-10-16T00:58:55.068Z,79.20
2022-10-16T01:01:22.989Z,79.20
2022-10-16T01:03:50.772Z,79.20
2022-10-16T01:06:28.057Z,79.20
2022-10-16T01:09:08.576Z,79.10
2022-10-16T01:11:42.113Z,79.20
2022-10-16T01:14:17.024Z,79.10
2022-10-16T01:16:51.000Z,79.10
2022-10-16T01:19:27.666Z,79.10
2022-10-16T01:21:57.124Z,79.10
2022-10-16T01:24:34.557Z,79.10
2022-10-16T01:27:15.456Z,79.10
2022-10-16T01:29:53.580Z,79.20
2022-10-16T01:32:29.041Z,79.10
2022-10-16T01:35:01.792Z,79.10
2022-10-16T01:37:37.052Z,79.20
2022-10-16T01:40:09.290Z,79.20
2022-10-16T01:42:42.710Z,79.20
2022-10-16T01:45:14.112Z,79.20
2022-10-16T01:47:44.627Z,79.20
2022-10-16T01:50:14.216Z,79.20
2022-10-16T01:52:46.628Z,79.20
2022-10-16T01:55:19.659Z,79.20
2022-10-16T01:57:51.519Z,79.20
2022-10-16T02:00:22.225Z,79.20
2022-10-16T02:02:53.857Z,79.20
2022-10-16T02:05:27.678Z,79.20
2022-10-16T02:07:56.027Z,79.20
2022-10-16T02:10:24.871Z,79.10
2022-10-16T02:12:59.535Z,79.10
2022-10-16T02:15:27.316Z,79.10
2022-10-16T02:17:55.019Z,79.10
2022-10-16T02:20:29.071Z,79.10
2022-10-16T02:22:58.654Z,79.10
2022-10-16T02:25:31.632Z,79.10
2022-10-16T02:28:05.794Z,79.10
2022-10-16T02:30:38.570Z,79.00
2022-10-16T02:33:09.196Z,79.00
2022-10-16T02:35:38.166Z,79.00
2022-10-16T02:38:06.910Z,79.00
2022-10-16T02:40:35.866Z,79.00
2022-10-16T02:43:06.572Z,79.00
2022-10-16T02:45:34.384Z,79.00
2022-10-16T02:48:02.086Z,79.10
2022-10-16T02:50:29.836Z,79.00
2022-10-16T02:52:57.542Z,79.00
2022-10-16T02:55:25.336Z,79.00
2022-10-16T02:57:53.337Z,79.00
2022-10-16T03:00:22.735Z,79.00
2022-10-16T03:02:50.608Z,79.00
2022-10-16T03:05:19.344Z,78.90
2022-10-16T03:07:47.167Z,78.90
2022-10-16T03:10:15.046Z,78.90
2022-10-16T03:12:42.764Z,78.90
2022-10-16T03:15:11.130Z,78.90
2022-10-16T03:17:40.333Z,78.90
2022-10-16T03:20:09.008Z,78.90
2022-10-16T03:22:36.820Z,78.90
2022-10-16T03:25:05.056Z,78.90
2022-10-16T03:27:32.942Z,78.90
2022-10-16T03:30:00.657Z,78.90
2022-10-16T03:32:29.537Z,78.90
2022-10-16T03:34:58.662Z,78.90
2022-10-16T03:37:26.607Z,78.90
2022-10-16T03:39:54.615Z,78.90
2022-10-16T03:42:22.494Z,78.80
2022-10-16T03:44:50.246Z,78.90
2022-10-16T03:47:21.590Z,78.90
2022-10-16T03:49:49.607Z,78.90
2022-10-16T03:54:51.720Z,78.90
2022-10-16T03:57:19.540Z,78.80
2022-10-16T03:59:47.286Z,78.90
2022-10-16T04:02:15.076Z,78.80
2022-10-16T04:04:42.851Z,78.80
2022-10-16T04:07:10.618Z,79.60
2022-10-16T04:09:39.778Z,78.80
2022-10-16T04:12:07.685Z,78.80
2022-10-16T04:14:35.529Z,78.80
2022-10-16T04:17:03.292Z,78.80
2022-10-16T04:19:31.012Z,78.80
2022-10-16T04:21:58.733Z,78.80
2022-10-16T04:24:26.455Z,78.80
2022-10-16T04:26:55.477Z,78.80
2022-10-16T04:29:23.204Z,78.70
2022-10-16T04:31:50.947Z,78.70
2022-10-16T04:34:18.660Z,78.70
2022-10-16T04:36:48.609Z,78.70
2022-10-16T04:39:16.486Z,78.70
2022-10-16T04:41:44.241Z,78.60
2022-10-16T04:44:13.322Z,78.60
2022-10-16T04:46:41.052Z,78.70
2022-10-16T04:49:08.805Z,78.50
2022-10-16T04:51:36.908Z,78.50
2022-10-16T04:54:04.838Z,78.50
2022-10-16T04:56:32.630Z,78.50
2022-10-16T04:59:00.353Z,78.40
2022-10-16T05:01:29.424Z,78.50
2022-10-16T05:03:57.156Z,78.60
2022-10-16T05:06:24.895Z,78.40
2022-10-16T05:08:52.632Z,78.40
2022-10-16T05:11:20.509Z,78.40
2022-10-16T05:13:49.906Z,78.50
2022-10-16T05:16:19.897Z,78.40
2022-10-16T05:18:52.988Z,78.40
2022-10-16T05:21:21.106Z,78.40
2022-10-16T05:23:48.836Z,78.40
2022-10-16T05:26:16.590Z,78.30
2022-10-16T05:28:44.381Z,78.30
2022-10-16T05:31:12.444Z,78.30
2022-10-16T05:33:40.236Z,78.40
2022-10-16T05:36:11.258Z,78.30
2022-10-16T05:38:39.578Z,78.40
2022-10-16T05:41:07.670Z,78.30
2022-10-16T05:43:35.430Z,78.40
2022-10-16T05:46:06.239Z,78.30
2022-10-16T05:48:34.941Z,78.30
2022-10-16T05:51:05.214Z,78.30
2022-10-16T05:53:36.517Z,78.20
2022-10-16T05:56:05.431Z,78.30
2022-10-16T05:58:34.702Z,78.20
2022-10-16T06:01:04.936Z,78.30
2022-10-16T06:03:32.982Z,78.30
2022-10-16T06:06:00.813Z,78.30
2022-10-16T06:08:28.558Z,78.40
2022-10-16T06:11:04.744Z,78.40
2022-10-16T06:13:32.767Z,78.40
2022-10-16T06:16:01.832Z,78.30
2022-10-16T06:18:31.248Z,78.40
2022-10-16T06:20:59.560Z,78.40
2022-10-16T06:23:30.310Z,78.40
2022-10-16T06:26:08.101Z,78.50
2022-10-16T06:28:36.040Z,78.50
2022-10-16T06:31:08.149Z,78.60
2022-10-16T06:33:36.927Z,78.90
2022-10-16T06:36:05.515Z,79.10
2022-10-16T06:38:33.978Z,79.30
2022-10-16T06:41:02.102Z,79.40
2022-10-16T06:43:33.363Z,79.60
2022-10-16T06:46:02.096Z,79.90
2022-10-16T06:48:30.940Z,80.00
2022-10-16T06:51:00.438Z,80.10
2022-10-16T06:53:29.606Z,80.20
2022-10-16T06:55:57.510Z,80.20
2022-10-16T06:58:25.676Z,80.20
2022-10-16T07:00:58.775Z,80.30
2022-10-16T07:03:26.568Z,80.40
2022-10-16T07:05:54.303Z,80.50
2022-10-16T07:08:22.057Z,80.50
2022-10-16T07:10:50.065Z,80.60
2022-10-16T07:13:17.832Z,80.70
2022-10-16T07:15:45.554Z,80.80
2022-10-16T07:18:14.678Z,80.70
2022-10-16T07:20:42.406Z,80.70
2022-10-16T07:23:10.125Z,80.80
2022-10-16T07:25:37.828Z,80.70
2022-10-16T07:28:06.358Z,80.70
2022-10-16T07:30:38.406Z,80.60
2022-10-16T07:33:06.172Z,80.60
2022-10-16T07:35:35.376Z,80.60
2022-10-16T07:38:03.108Z,80.50
2022-10-16T07:40:30.842Z,80.50
2022-10-16T07:42:58.555Z,80.50
2022-10-16T07:45:26.264Z,80.40
2022-10-16T07:47:53.967Z,80.40
2022-10-16T07:50:21.737Z,80.40
2022-10-16T07:52:50.785Z,80.40
2022-10-16T07:55:18.521Z,80.30
2022-10-16T07:57:46.294Z,80.30
2022-10-16T08:00:15.214Z,80.30
2022-10-16T08:02:42.969Z,80.30
2022-10-16T08:05:11.123Z,80.30
2022-10-16T08:07:39.022Z,80.30
2022-10-16T08:10:08.942Z,80.30
2022-10-16T08:12:36.646Z,80.30
2022-10-16T08:15:04.681Z,80.30
2022-10-16T08:17:32.784Z,80.30
2022-10-16T08:20:00.492Z,80.40
2022-10-16T08:22:28.230Z,80.40
2022-10-16T08:24:55.969Z,80.40
2022-10-16T08:27:25.398Z,80.40
2022-10-16T08:29:53.355Z,80.50
2022-10-16T08:32:24.007Z,80.40
2022-10-16T08:34:54.554Z,80.40
2022-10-16T08:37:22.285Z,80.40
2022-10-16T08:39:50.011Z,80.50
2022-10-16T08:42:32.482Z,80.40
2022-10-16T08:45:13.852Z,80.40
2022-10-16T08:47:50.712Z,80.40
2022-10-16T08:50:26.061Z,80.40
2022-10-16T08:52:54.056Z,80.50
2022-10-16T08:55:35.610Z,80.40
2022-10-16T08:58:13.873Z,80.30
2022-10-16T09:00:42.217Z,80.10
2022-10-16T09:03:19.176Z,80.00
2022-10-16T09:05:59.288Z,80.10
2022-10-16T09:08:36.105Z,80.00
2022-10-16T09:11:09.791Z,80.00
2022-10-16T09:13:49.910Z,79.90
2022-10-16T09:16:25.248Z,79.80
2022-10-16T09:19:00.178Z,79.70
2022-10-16T09:21:30.748Z,79.80
2022-10-16T09:24:01.986Z,80.00
2022-10-16T09:26:29.751Z,80.30
2022-10-16T09:28:58.848Z,80.40
2022-10-16T09:31:26.640Z,80.70
2022-10-16T09:33:59.786Z,81.00
2022-10-16T09:36:30.058Z,81.30
2022-10-16T09:39:06.088Z,81.50
2022-10-16T09:41:37.778Z,81.70
2022-10-16T09:44:19.724Z,81.90
2022-10-16T09:46:47.864Z,82.10
2022-10-16T09:49:25.136Z,82.40
2022-10-16T09:52:04.349Z,82.50
2022-10-16T09:54:32.052Z,82.60
2022-10-16T09:57:07.414Z,82.60
2022-10-16T09:59:36.486Z,82.70
2022-10-16T10:02:12.961Z,82.60
2022-10-16T10:04:46.491Z,82.70
2022-10-16T10:07:20.715Z,82.60
2022-10-16T10:09:49.003Z,82.60
2022-10-16T10:12:24.500Z,82.50
2022-10-16T10:14:58.328Z,82.60
2022-10-16T10:17:27.943Z,82.80
2022-10-16T10:19:58.494Z,82.70
2022-10-16T10:22:29.376Z,82.70
2022-10-16T10:25:01.677Z,82.70
2022-10-16T10:27:38.573Z,82.90
2022-10-16T10:30:12.585Z,82.90
2022-10-16T10:32:49.034Z,82.90
2022-10-16T10:35:23.853Z,82.90
2022-10-16T10:38:13.856Z,83.10
2022-10-16T10:40:52.322Z,83.20
2022-10-16T10:43:42.784Z,83.20
2022-10-16T10:46:19.837Z,83.40
2022-10-16T10:49:05.165Z,83.50
2022-10-16T10:51:46.369Z,83.60
2022-10-16T10:54:19.690Z,83.50
2022-10-16T10:56:54.892Z,83.70
2022-10-16T10:59:51.510Z,84.00
2022-10-16T11:02:29.257Z,84.60
2022-10-16T11:05:35.405Z,85.20
2022-10-16T11:08:09.548Z,85.60
2022-10-16T11:10:46.505Z,85.60
2022-10-16T11:13:25.539Z,85.90
2022-10-16T11:15:58.894Z,86.20
2022-10-16T11:18:34.257Z,86.30
2022-10-16T11:21:07.437Z,86.40
2022-10-16T11:23:42.416Z,86.50
2022-10-16T11:26:15.998Z,86.50
2022-10-16T11:28:48.151Z,86.50
2022-10-16T11:31:20.062Z,86.50
2022-10-16T11:33:55.425Z,86.50
2022-10-16T11:36:27.754Z,86.50
2022-10-16T11:39:04.221Z,86.40
2022-10-16T11:41:37.311Z,86.40
2022-10-16T11:44:18.341Z,86.40
2022-10-16T11:47:00.765Z,86.30
2022-10-16T11:49:39.601Z,86.20
2022-10-16T11:52:18.235Z,86.30
2022-10-16T11:54:50.928Z,86.40
2022-10-16T11:57:22.850Z,86.40
2022-10-16T11:59:56.373Z,86.40
2022-10-16T12:02:45.633Z,86.30
2022-10-16T12:05:25.749Z,86.30
2022-10-16T12:08:03.365Z,86.40
2022-10-16T12:13:43.260Z,86.30
2022-10-16T12:16:24.653Z,86.30
2022-10-16T12:19:11.682Z,86.30
2022-10-16T12:21:40.869Z,86.20
2022-10-16T12:24:21.482Z,86.20
2022-10-16T12:26:51.988Z,86.10
2022-10-16T12:29:34.713Z,86.00
2022-10-16T12:32:03.862Z,86.00
2022-10-16T12:34:39.954Z,85.90
2022-10-16T12:37:16.554Z,85.80
2022-10-16T12:39:44.590Z,85.80
2022-10-16T12:42:34.737Z,85.70
2022-10-16T12:45:03.374Z,85.60
2022-10-16T12:47:40.034Z,85.50
2022-10-16T12:50:27.093Z,85.50
2022-10-16T12:52:56.151Z,85.40
2022-10-16T12:55:24.763Z,85.40
2022-10-16T12:58:16.682Z,85.40
2022-10-16T13:00:50.116Z,85.40
2022-10-16T13:03:58.246Z,85.40
2022-10-16T13:06:37.133Z,85.40
2022-10-16T13:09:16.750Z,85.30
2022-10-16T13:11:59.566Z,85.20
2022-10-16T13:17:25.709Z,85.10
2022-10-16T13:20:05.013Z,85.10
2022-10-16T13:22:41.154Z,85.00
2022-10-16T13:25:24.222Z,84.90
2022-10-16T13:27:56.722Z,84.90
2022-10-16T13:30:29.903Z,84.80
2022-10-16T13:33:02.840Z,84.80
2022-10-16T13:35:32.215Z,84.80
2022-10-16T13:38:15.688Z,84.70
2022-10-16T13:40:56.755Z,84.70
2022-10-16T13:43:30.105Z,84.60
2022-10-16T13:46:00.768Z,84.50
2022-10-16T13:48:28.510Z,84.60
2022-10-16T13:51:07.745Z,84.50
2022-10-16T13:53:36.929Z,84.50
2022-10-16T13:56:09.231Z,84.50
2022-10-16T13:58:37.002Z,84.40
2022-10-16T14:01:07.560Z,84.40
2022-10-16T14:03:37.097Z,84.30
2022-10-16T14:06:09.912Z,84.30
2022-10-16T14:08:37.727Z,84.20
2022-10-16T14:11:06.950Z,84.20
2022-10-16T14:13:38.951Z,84.20
2022-10-16T14:16:10.481Z,84.20
2022-10-16T14:18:40.589Z,84.00
2022-10-16T14:21:12.761Z,84.00
2022-10-16T14:23:41.745Z,84.00
2022-10-16T14:26:17.373Z,83.90
2022-10-16T14:28:46.584Z,83.90
2022-10-16T14:31:32.973Z,83.80
2022-10-16T14:34:01.703Z,83.80
2022-10-16T14:36:30.629Z,83.80
2022-10-16T14:39:02.867Z,83.80
2022-10-16T14:41:34.098Z,83.90
2022-10-16T14:44:05.410Z,84.00
2022-10-16T14:46:37.454Z,84.00
2022-10-16T14:49:16.255Z,84.00
2022-10-16T14:51:45.683Z,84.10
2022-10-16T14:54:14.543Z,84.00
2022-10-16T14:56:50.791Z,84.00
2022-10-16T14:59:21.893Z,84.00
2022-10-16T15:01:49.796Z,84.00
2022-10-16T15:04:18.676Z,84.10
2022-10-16T15:06:46.496Z,84.10
2022-10-16T15:09:14.242Z,84.00
2022-10-16T15:11:43.286Z,84.10
2022-10-16T15:16:46.793Z,84.20
2022-10-16T15:19:14.518Z,84.30
2022-10-16T15:21:43.182Z,84.30
2022-10-16T15:24:16.519Z,84.40
2022-10-16T15:26:47.783Z,84.40
2022-10-16T15:29:17.170Z,84.50
2022-10-16T15:31:45.554Z,84.50
2022-10-16T15:34:14.122Z,84.50
2022-10-16T15:36:42.488Z,84.60
2022-10-16T15:39:15.157Z,84.60
2022-10-16T15:41:43.257Z,84.50
2022-10-16T15:44:11.376Z,84.50
2022-10-16T15:46:40.478Z,84.50
2022-10-16T15:49:08.253Z,84.40
2022-10-16T15:51:39.461Z,84.40
2022-10-16T15:54:07.249Z,84.40
2022-10-16T15:56:37.664Z,84.40
2022-10-16T15:59:05.432Z,84.40
2022-10-16T16:01:35.258Z,84.30
2022-10-16T16:04:10.867Z,84.30
2022-10-16T16:06:45.604Z,84.30
2022-10-16T16:09:13.685Z,84.30
2022-10-16T16:11:41.461Z,84.30
2022-10-16T16:14:09.356Z,84.30
2022-10-16T16:16:38.930Z,84.30
2022-10-16T16:19:11.442Z,84.30
2022-10-16T16:21:40.154Z,84.30
2022-10-16T16:24:08.913Z,84.30
2022-10-16T16:26:40.447Z,84.30
2022-10-16T16:29:08.961Z,84.30
2022-10-16T16:31:37.108Z,84.30
2022-10-16T16:34:05.179Z,84.20
2022-10-16T16:36:34.802Z,84.20
2022-10-16T16:39:03.058Z,84.20
2022-10-16T16:41:31.805Z,84.20
2022-10-16T16:44:04.446Z,84.40
2022-10-16T16:46:33.106Z,84.50
2022-10-16T16:49:01.262Z,84.60
2022-10-16T16:51:29.026Z,84.70
2022-10-16T16:53:58.500Z,84.80
2022-10-16T16:56:27.583Z,84.90
2022-10-16T16:58:56.981Z,85.00
2022-10-16T17:01:26.850Z,85.10
2022-10-16T17:03:56.897Z,85.40
2022-10-16T17:06:26.286Z,85.40
2022-10-16T17:08:54.151Z,85.50
2022-10-16T17:11:25.378Z,85.50
2022-10-16T17:13:56.713Z,85.60
2022-10-16T17:16:27.134Z,85.60
2022-10-16T17:18:54.924Z,85.60
2022-10-16T17:21:23.133Z,85.60
2022-10-16T17:23:53.089Z,85.60
2022-10-16T17:26:20.931Z,85.70
2022-10-16T17:28:53.039Z,85.70
2022-10-16T17:31:22.346Z,85.70
2022-10-16T17:33:51.478Z,85.70
2022-10-16T17:36:20.003Z,86.60
2022-10-16T17:38:48.177Z,85.80
2022-10-16T17:41:18.145Z,85.90
2022-10-16T17:43:46.703Z,85.90
2022-10-16T17:46:18.104Z,85.90
2022-10-16T17:48:48.320Z,85.90
2022-10-16T17:51:18.581Z,85.90
2022-10-16T17:53:49.899Z,86.00
2022-10-16T17:56:17.900Z,86.00
2022-10-16T17:58:49.012Z,86.00
2022-10-16T18:01:24.416Z,86.00
2022-10-16T18:03:53.341Z,86.10
2022-10-16T18:06:22.714Z,86.10
2022-10-16T18:08:51.111Z,86.20
2022-10-16T18:11:18.969Z,86.20
2022-10-16T18:13:46.765Z,86.30
2022-10-16T18:16:16.076Z,86.30
2022-10-16T18:18:45.837Z,86.40
2022-10-16T18:21:16.479Z,86.40
2022-10-16T18:23:50.708Z,86.50
2022-10-16T18:26:20.994Z,86.50
2022-10-16T18:28:50.837Z,86.50
2022-10-16T18:31:19.080Z,86.60
2022-10-16T18:33:50.393Z,86.60
2022-10-16T18:36:21.037Z,86.60
2022-10-16T18:38:49.290Z,86.70
2022-10-16T18:41:17.553Z,86.70
2022-10-16T18:43:45.307Z,86.70
2022-10-16T18:46:14.958Z,86.70
2022-10-16T18:48:43.097Z,86.90
2022-10-16T18:51:14.613Z,86.80
2022-10-16T18:53:44.190Z,86.80
2022-10-16T18:56:14.806Z,86.90
2022-10-16T18:58:44.230Z,86.90
2022-10-16T19:01:16.473Z,86.90
2022-10-16T19:03:45.020Z,86.90
2022-10-16T19:06:16.170Z,87.00
2022-10-16T19:08:44.850Z,87.00
2022-10-16T19:11:15.184Z,87.80
2022-10-16T19:13:43.591Z,87.00
2022-10-16T19:16:20.478Z,87.00
2022-10-16T19:18:49.585Z,87.10
2022-10-16T19:21:19.430Z,87.10
2022-10-16T19:23:47.968Z,87.10
2022-10-16T19:26:17.592Z,87.10
2022-10-16T19:28:46.165Z,87.20
2022-10-16T19:31:16.452Z,87.20
2022-10-16T19:33:44.282Z,87.20
2022-10-16T19:36:14.141Z,87.20
2022-10-16T19:38:43.621Z,87.20
2022-10-16T19:41:13.426Z,87.20
2022-10-16T19:43:41.865Z,87.30
2022-10-16T19:46:11.886Z,87.30
2022-10-16T19:48:39.960Z,87.30
2022-10-16T19:51:08.741Z,87.30
2022-10-16T19:53:36.463Z,87.30
2022-10-16T19:56:13.108Z,87.40
2022-10-16T19:58:40.833Z,87.40
2022-10-16T20:01:08.692Z,87.30
2022-10-16T20:03:36.538Z,87.30
2022-10-16T20:06:06.758Z,87.30
2022-10-16T20:08:34.886Z,87.20
2022-10-16T20:11:02.969Z,87.20
2022-10-16T20:13:32.940Z,87.20
2022-10-16T20:16:01.049Z,87.10
2022-10-16T20:18:28.825Z,87.00
2022-10-16T20:20:56.548Z,86.90
2022-10-16T20:23:24.706Z,86.90
2022-10-16T20:25:53.015Z,86.70
2022-10-16T20:28:23.072Z,86.70
2022-10-16T20:30:52.265Z,86.70
2022-10-16T20:33:20.001Z,86.50
2022-10-16T20:35:49.801Z,86.50
2022-10-16T20:38:19.055Z,86.30
2022-10-16T20:40:48.605Z,86.30
2022-10-16T20:43:18.482Z,86.20
2022-10-16T20:45:47.102Z,86.10
2022-10-16T20:48:16.162Z,86.10
2022-10-16T20:50:43.889Z,86.00
2022-10-16T20:53:11.660Z,86.00
2022-10-16T20:55:39.421Z,86.00
2022-10-16T20:58:07.299Z,85.90
2022-10-16T21:00:35.021Z,85.90
2022-10-16T21:03:02.767Z,85.90
2022-10-16T21:05:34.414Z,85.90
2022-10-16T21:08:02.226Z,85.80
2022-10-16T21:10:30.765Z,85.80
2022-10-16T21:12:58.531Z,85.70
2022-10-16T21:15:26.248Z,85.70
2022-10-16T21:17:54.606Z,85.60
2022-10-16T21:20:22.433Z,85.60
2022-10-16T21:22:51.490Z,85.90
2022-10-16T21:25:19.417Z,85.50
2022-10-16T21:27:47.345Z,85.50
2022-10-16T21:30:15.434Z,85.40
2022-10-16T21:32:43.176Z,85.40
2022-10-16T21:35:10.897Z,85.20
2022-10-16T21:37:38.636Z,85.10
2022-10-16T21:40:09.139Z,85.10
2022-10-16T21:42:36.844Z,85.10
2022-10-16T21:45:05.010Z,85.10
2022-10-16T21:47:33.896Z,85.00
2022-10-16T21:50:01.584Z,85.10
2022-10-16T21:52:29.737Z,85.10
2022-10-16T21:54:57.662Z,84.90
2022-10-16T21:57:26.923Z,84.90
2022-10-16T21:59:54.817Z,84.80
2022-10-16T22:02:22.536Z,84.90
2022-10-16T22:04:50.244Z,84.80
2022-10-16T22:07:18.076Z,84.90
2022-10-16T22:09:45.840Z,84.80
2022-10-16T22:12:19.389Z,84.80
2022-10-16T22:14:48.600Z,84.80
2022-10-16T22:17:16.304Z,84.80
2022-10-16T22:19:44.161Z,84.80
2022-10-16T22:22:11.871Z,84.80
2022-10-16T22:24:39.605Z,84.70
2022-10-16T22:27:07.345Z,84.70
2022-10-16T22:29:35.058Z,84.70
2022-10-16T22:32:04.170Z,84.70
2022-10-16T22:34:31.923Z,84.60
2022-10-16T22:36:59.684Z,84.50
2022-10-16T22:39:28.112Z,84.50
2022-10-16T22:41:55.904Z,84.50
2022-10-16T22:44:23.647Z,84.50
2022-10-16T22:46:51.550Z,84.50
2022-10-16T22:49:20.717Z,84.40
2022-10-16T22:51:48.769Z,84.40
2022-10-16T22:54:16.836Z,84.40
2022-10-16T22:56:44.539Z,84.40
2022-10-16T22:59:12.630Z,84.30
2022-10-16T23:01:41.973Z,84.30
2022-10-16T23:04:09.758Z,84.30
2022-10-16T23:06:38.792Z,84.30
2022-10-16T23:09:06.560Z,84.30
2022-10-16T23:11:34.457Z,84.30
2022-10-16T23:14:02.209Z,84.30
2022-10-16T23:16:29.932Z,84.30
2022-10-16T23:18:58.896Z,84.20
2022-10-16T23:21:27.031Z,84.30
2022-10-16T23:23:56.175Z,84.20
2022-10-16T23:26:25.875Z,84.20
2022-10-16T23:28:54.155Z,84.20
2022-10-16T23:31:21.914Z,84.20
2022-10-16T23:33:50.073Z,84.10
2022-10-16T23:36:19.973Z,84.10
2022-10-16T23:38:48.341Z,84.10
2022-10-16T23:41:18.801Z,84.10
2022-10-16T23:43:46.834Z,84.10
2022-10-16T23:46:15.589Z,84.10
2022-10-16T23:48:44.145Z,84.00
2022-10-16T23:51:12.406Z,84.00
2022-10-16T23:53:40.719Z,84.00
2022-10-16T23:56:09.110Z,84.00
2022-10-16T23:58:38.289Z,84.00
